DELDB LOWZ-LOWI
Flight info
| Callsign | DELDB |
|---|---|
| Flight time | 0h 34m |
| Altitude | 8500 |
| Route | DCT |
| Aircraft | P28R/L-SDGRY/S |
Departure
| Time | 2026-04-17 13:04 |
|---|---|
| Airport | Zell am See Airfield (LOWZ) |
Arrival
| Time | 2026-04-17 13:39 |
|---|---|
| Airport | Innsbruck Airport (LOWI) |
| Time | Latitude | Longitude | Altitude | Speed | Heading |
|---|---|---|---|---|---|
| 2026-04-17 12:56 | 47.29153 | 12.78690 | 2516 ft | 0 kts | 346° |
| 2026-04-17 13:00 | 47.29154 | 12.78690 | 2516 ft | 1 kts | 346° |
| 2026-04-17 13:00 | 47.29176 | 12.78705 | 2516 ft | 7 kts | 76° |
| 2026-04-17 13:00 | 47.29197 | 12.78830 | 2514 ft | 18 kts | 76° |
| 2026-04-17 13:01 | 47.29227 | 12.79005 | 2516 ft | 16 kts | 76° |
| 2026-04-17 13:01 | 47.29253 | 12.79158 | 2513 ft | 16 kts | 76° |
| 2026-04-17 13:01 | 47.29282 | 12.79328 | 2516 ft | 18 kts | 76° |
| 2026-04-17 13:01 | 47.29297 | 12.79490 | 2515 ft | 13 kts | 88° |
| 2026-04-17 13:02 | 47.29280 | 12.79569 | 2516 ft | 0 kts | 156° |
| 2026-04-17 13:02 | 47.29280 | 12.79570 | 2516 ft | 1 kts | 156° |
| 2026-04-17 13:03 | 47.29244 | 12.79575 | 2514 ft | 8 kts | 217° |
| 2026-04-17 13:03 | 47.29237 | 12.79556 | 2506 ft | 0 kts | 256° |
| 2026-04-17 13:03 | 47.29197 | 12.79318 | 2507 ft | 52 kts | 255° |
| 2026-04-17 13:04 | 47.29066 | 12.78587 | 2556 ft | 88 kts | 254° |
| 2026-04-17 13:04 | 47.28886 | 12.77665 | 2780 ft | 98 kts | 258° |
| 2026-04-17 13:04 | 47.28754 | 12.76681 | 3083 ft | 98 kts | 266° |
| 2026-04-17 13:04 | 47.28680 | 12.75674 | 3345 ft | 100 kts | 264° |
| 2026-04-17 13:05 | 47.28607 | 12.74630 | 3571 ft | 104 kts | 264° |
| 2026-04-17 13:05 | 47.28523 | 12.73567 | 3825 ft | 108 kts | 273° |
| 2026-04-17 13:05 | 47.28489 | 12.72479 | 4069 ft | 107 kts | 268° |
| 2026-04-17 13:05 | 47.28460 | 12.71381 | 4332 ft | 109 kts | 272° |
| 2026-04-17 13:06 | 47.28426 | 12.70242 | 4570 ft | 116 kts | 272° |
| 2026-04-17 13:06 | 47.28392 | 12.69037 | 4839 ft | 125 kts | 272° |
| 2026-04-17 13:06 | 47.28324 | 12.67737 | 5097 ft | 131 kts | 272° |
| 2026-04-17 13:06 | 47.28263 | 12.66381 | 5397 ft | 133 kts | 272° |
| 2026-04-17 13:07 | 47.28195 | 12.65077 | 5700 ft | 124 kts | 271° |
| 2026-04-17 13:07 | 47.28130 | 12.63838 | 6044 ft | 121 kts | 271° |
| 2026-04-17 13:07 | 47.28081 | 12.62597 | 6376 ft | 121 kts | 271° |
| 2026-04-17 13:07 | 47.28042 | 12.61376 | 6696 ft | 118 kts | 271° |
| 2026-04-17 13:08 | 47.28030 | 12.60191 | 7003 ft | 114 kts | 276° |
| 2026-04-17 13:08 | 47.28048 | 12.59041 | 7309 ft | 110 kts | 273° |
| 2026-04-17 13:08 | 47.28071 | 12.57944 | 7610 ft | 104 kts | 275° |
| 2026-04-17 13:08 | 47.28090 | 12.56926 | 7902 ft | 94 kts | 273° |
| 2026-04-17 13:09 | 47.28120 | 12.55971 | 8052 ft | 94 kts | 276° |
| 2026-04-17 13:09 | 47.28156 | 12.54986 | 8183 ft | 98 kts | 275° |
| 2026-04-17 13:09 | 47.28186 | 12.53953 | 8314 ft | 104 kts | 277° |
| 2026-04-17 13:09 | 47.28214 | 12.52870 | 8423 ft | 110 kts | 274° |
| 2026-04-17 13:10 | 47.28244 | 12.51695 | 8489 ft | 119 kts | 275° |
| 2026-04-17 13:10 | 47.28297 | 12.50436 | 8494 ft | 128 kts | 276° |
| 2026-04-17 13:10 | 47.28325 | 12.49085 | 8497 ft | 138 kts | 274° |
| 2026-04-17 13:10 | 47.28378 | 12.47649 | 8492 ft | 142 kts | 275° |
| 2026-04-17 13:11 | 47.28419 | 12.46189 | 8490 ft | 144 kts | 272° |
| 2026-04-17 13:11 | 47.28358 | 12.44712 | 8491 ft | 145 kts | 268° |
| 2026-04-17 13:11 | 47.28280 | 12.43231 | 8492 ft | 145 kts | 268° |
| 2026-04-17 13:11 | 47.28169 | 12.41761 | 8486 ft | 143 kts | 263° |
| 2026-04-17 13:12 | 47.28015 | 12.40305 | 8490 ft | 144 kts | 263° |
| 2026-04-17 13:12 | 47.27038 | 12.30150 | 8475 ft | 137 kts | 264° |
| 2026-04-17 13:12 | 47.26558 | 12.25130 | 8490 ft | 138 kts | 264° |
| 2026-04-17 13:13 | 47.26237 | 12.21794 | 8490 ft | 139 kts | 263° |
| 2026-04-17 13:13 | 47.26097 | 12.20377 | 8492 ft | 142 kts | 263° |
| 2026-04-17 13:13 | 47.25957 | 12.18944 | 8482 ft | 141 kts | 263° |
| 2026-04-17 13:13 | 47.25817 | 12.17484 | 8483 ft | 147 kts | 263° |
| 2026-04-17 13:14 | 47.25665 | 12.16018 | 8473 ft | 142 kts | 264° |
| 2026-04-17 13:14 | 47.25433 | 12.14625 | 8484 ft | 140 kts | 256° |
| 2026-04-17 13:14 | 47.25162 | 12.13215 | 8475 ft | 142 kts | 256° |
| 2026-04-17 13:14 | 47.24902 | 12.11817 | 8485 ft | 145 kts | 257° |
| 2026-04-17 13:15 | 47.24635 | 12.10380 | 8495 ft | 144 kts | 255° |
| 2026-04-17 13:15 | 47.24384 | 12.08939 | 8493 ft | 145 kts | 256° |
| 2026-04-17 13:15 | 47.24121 | 12.07506 | 8480 ft | 146 kts | 256° |
| 2026-04-17 13:15 | 47.23757 | 12.06100 | 8486 ft | 147 kts | 246° |
| 2026-04-17 13:16 | 47.23334 | 12.04705 | 8482 ft | 151 kts | 248° |
| 2026-04-17 13:16 | 47.22894 | 12.03289 | 8485 ft | 153 kts | 247° |
| 2026-04-17 13:16 | 47.22453 | 12.01860 | 8484 ft | 154 kts | 247° |
| 2026-04-17 13:16 | 47.22003 | 12.00441 | 8468 ft | 150 kts | 247° |
| 2026-04-17 13:17 | 47.21609 | 11.99043 | 8465 ft | 146 kts | 253° |
| 2026-04-17 13:17 | 47.21528 | 11.97565 | 8461 ft | 148 kts | 274° |
| 2026-04-17 13:17 | 47.21720 | 11.96114 | 8460 ft | 146 kts | 296° |
| 2026-04-17 13:17 | 47.22370 | 11.95007 | 8476 ft | 143 kts | 319° |
| 2026-04-17 13:18 | 47.23051 | 11.93958 | 8492 ft | 138 kts | 313° |
| 2026-04-17 13:18 | 47.23714 | 11.92918 | 8467 ft | 138 kts | 313° |
| 2026-04-17 13:18 | 47.24441 | 11.92010 | 8393 ft | 142 kts | 333° |
| 2026-04-17 13:18 | 47.25391 | 11.91496 | 8269 ft | 148 kts | 339° |
| 2026-04-17 13:19 | 47.26339 | 11.90956 | 8148 ft | 144 kts | 338° |
| 2026-04-17 13:19 | 47.27282 | 11.90414 | 8027 ft | 146 kts | 338° |
| 2026-04-17 13:19 | 47.28234 | 11.89877 | 7911 ft | 147 kts | 338° |
| 2026-04-17 13:19 | 47.29190 | 11.89331 | 7775 ft | 148 kts | 339° |
| 2026-04-17 13:20 | 47.30068 | 11.88576 | 7610 ft | 149 kts | 313° |
| 2026-04-17 13:20 | 47.30461 | 11.87176 | 7459 ft | 147 kts | 286° |
| 2026-04-17 13:20 | 47.30563 | 11.85695 | 7310 ft | 144 kts | 271° |
| 2026-04-17 13:20 | 47.30465 | 11.84265 | 7151 ft | 136 kts | 264° |
| 2026-04-17 13:21 | 47.30315 | 11.82916 | 6947 ft | 135 kts | 259° |
| 2026-04-17 13:21 | 47.30084 | 11.81589 | 6769 ft | 133 kts | 258° |
| 2026-04-17 13:21 | 47.29867 | 11.80277 | 6614 ft | 130 kts | 258° |
| 2026-04-17 13:21 | 47.29695 | 11.78979 | 6462 ft | 129 kts | 262° |
| 2026-04-17 13:22 | 47.29545 | 11.77677 | 6309 ft | 129 kts | 263° |
| 2026-04-17 13:22 | 47.29418 | 11.76389 | 6159 ft | 126 kts | 264° |
| 2026-04-17 13:22 | 47.29284 | 11.75094 | 6014 ft | 130 kts | 264° |
| 2026-04-17 13:22 | 47.29157 | 11.73763 | 5863 ft | 131 kts | 265° |
| 2026-04-17 13:23 | 47.29044 | 11.72428 | 5713 ft | 132 kts | 262° |
| 2026-04-17 13:23 | 47.28866 | 11.71095 | 5561 ft | 133 kts | 262° |
| 2026-04-17 13:23 | 47.28689 | 11.69755 | 5409 ft | 133 kts | 261° |
| 2026-04-17 13:23 | 47.28501 | 11.68442 | 5217 ft | 129 kts | 261° |
| 2026-04-17 13:24 | 47.28318 | 11.67173 | 5060 ft | 125 kts | 261° |
| 2026-04-17 13:24 | 47.28144 | 11.65906 | 4976 ft | 127 kts | 263° |
| 2026-04-17 13:24 | 47.27961 | 11.64645 | 4893 ft | 123 kts | 261° |
| 2026-04-17 13:24 | 47.27849 | 11.63444 | 4851 ft | 114 kts | 269° |
| 2026-04-17 13:25 | 47.27723 | 11.62302 | 4739 ft | 115 kts | 261° |
| 2026-04-17 13:25 | 47.27467 | 11.61164 | 4598 ft | 121 kts | 251° |
| 2026-04-17 13:25 | 47.27171 | 11.59949 | 4475 ft | 130 kts | 255° |
| 2026-04-17 13:25 | 47.26897 | 11.58715 | 4409 ft | 123 kts | 254° |
| 2026-04-17 13:26 | 47.26644 | 11.57581 | 4351 ft | 114 kts | 252° |
| 2026-04-17 13:26 | 47.26389 | 11.56448 | 4247 ft | 119 kts | 255° |
| 2026-04-17 13:26 | 47.26144 | 11.55299 | 4112 ft | 116 kts | 254° |
| 2026-04-17 13:26 | 47.25838 | 11.54190 | 3989 ft | 118 kts | 244° |
| 2026-04-17 13:27 | 47.25480 | 11.53110 | 3946 ft | 115 kts | 248° |
| 2026-04-17 13:27 | 47.25143 | 11.52057 | 3946 ft | 116 kts | 246° |
| 2026-04-17 13:27 | 47.24779 | 11.50907 | 3960 ft | 130 kts | 248° |
| 2026-04-17 13:27 | 47.24586 | 11.49559 | 3959 ft | 140 kts | 263° |
| 2026-04-17 13:28 | 47.24412 | 11.48127 | 3969 ft | 142 kts | 261° |
| 2026-04-17 13:28 | 47.24231 | 11.46718 | 3958 ft | 138 kts | 261° |
| 2026-04-17 13:28 | 47.24057 | 11.45331 | 3962 ft | 138 kts | 262° |
| 2026-04-17 13:28 | 47.23888 | 11.43958 | 3943 ft | 133 kts | 262° |
| 2026-04-17 13:29 | 47.23716 | 11.42634 | 3950 ft | 132 kts | 261° |
| 2026-04-17 13:29 | 47.23591 | 11.41315 | 3948 ft | 129 kts | 275° |
| 2026-04-17 13:29 | 47.24059 | 11.40303 | 3837 ft | 125 kts | 341° |
| 2026-04-17 13:29 | 47.24761 | 11.40857 | 3639 ft | 129 kts | 69° |
| 2026-04-17 13:30 | 47.24829 | 11.42126 | 3612 ft | 120 kts | 89° |
| 2026-04-17 13:30 | 47.24810 | 11.43342 | 3584 ft | 120 kts | 94° |
| 2026-04-17 13:30 | 47.24704 | 11.44540 | 3606 ft | 118 kts | 97° |
| 2026-04-17 13:30 | 47.24582 | 11.45719 | 3615 ft | 116 kts | 109° |
| 2026-04-17 13:31 | 47.24041 | 11.46536 | 3706 ft | 115 kts | 168° |
| 2026-04-17 13:31 | 47.23459 | 11.45983 | 3746 ft | 111 kts | 260° |
| 2026-04-17 13:31 | 47.23873 | 11.45079 | 3596 ft | 120 kts | 344° |
| 2026-04-17 13:31 | 47.24532 | 11.45609 | 3612 ft | 118 kts | 65° |
| 2026-04-17 13:32 | 47.24662 | 11.46824 | 3599 ft | 118 kts | 85° |
| 2026-04-17 13:32 | 47.25015 | 11.47857 | 3615 ft | 119 kts | 30° |
| 2026-04-17 13:32 | 47.25751 | 11.47661 | 3640 ft | 118 kts | 310° |
| 2026-04-17 13:32 | 47.25871 | 11.46471 | 3651 ft | 120 kts | 270° |
| 2026-04-17 13:33 | 47.25849 | 11.45287 | 3549 ft | 115 kts | 270° |
| 2026-04-17 13:33 | 47.25597 | 11.44168 | 3426 ft | 117 kts | 245° |
| 2026-04-17 13:33 | 47.25300 | 11.43081 | 3416 ft | 113 kts | 251° |
| 2026-04-17 13:33 | 47.25045 | 11.41983 | 3389 ft | 114 kts | 254° |
| 2026-04-17 13:34 | 47.24826 | 11.40848 | 3360 ft | 115 kts | 258° |
| 2026-04-17 13:34 | 47.24719 | 11.39679 | 3357 ft | 114 kts | 269° |
| 2026-04-17 13:34 | 47.24658 | 11.38524 | 3347 ft | 115 kts | 266° |
| 2026-04-17 13:34 | 47.24546 | 11.37357 | 3322 ft | 116 kts | 264° |
| 2026-04-17 13:35 | 47.24406 | 11.36204 | 3356 ft | 114 kts | 263° |
| 2026-04-17 13:35 | 47.24288 | 11.35047 | 3358 ft | 114 kts | 266° |
| 2026-04-17 13:35 | 47.24255 | 11.33891 | 3366 ft | 112 kts | 273° |
| 2026-04-17 13:35 | 47.24204 | 11.32749 | 3375 ft | 112 kts | 265° |
| 2026-04-17 13:36 | 47.24183 | 11.31608 | 3414 ft | 113 kts | 271° |
| 2026-04-17 13:36 | 47.24244 | 11.30462 | 3491 ft | 110 kts | 278° |
| 2026-04-17 13:36 | 47.24379 | 11.29364 | 3315 ft | 107 kts | 292° |
| 2026-04-17 13:36 | 47.24791 | 11.28503 | 3182 ft | 105 kts | 334° |
| 2026-04-17 13:37 | 47.25418 | 11.28737 | 2962 ft | 106 kts | 60° |
| 2026-04-17 13:37 | 47.25531 | 11.29785 | 2651 ft | 98 kts | 85° |
| 2026-04-17 13:37 | 47.25610 | 11.30706 | 2367 ft | 84 kts | 82° |
| 2026-04-17 13:37 | 47.25712 | 11.31542 | 2214 ft | 79 kts | 79° |
| 2026-04-17 13:38 | 47.25790 | 11.32297 | 2064 ft | 73 kts | 78° |
| 2026-04-17 13:38 | 47.25872 | 11.33024 | 1947 ft | 73 kts | 78° |
| 2026-04-17 13:38 | 47.25950 | 11.33745 | 1900 ft | 66 kts | 79° |
| 2026-04-17 13:38 | 47.26015 | 11.34341 | 1898 ft | 52 kts | 81° |
| 2026-04-17 13:39 | 47.26056 | 11.34730 | 1896 ft | 26 kts | 82° |
| 2026-04-17 13:39 | 47.26102 | 11.34830 | 1897 ft | 7 kts | 5° |
| 2026-04-17 13:39 | 47.26194 | 11.34833 | 1893 ft | 8 kts | 358° |
| 2026-04-17 13:39 | 47.26215 | 11.34761 | 1893 ft | 8 kts | 278° |
| 2026-04-17 13:40 | 47.26207 | 11.34701 | 1890 ft | 5 kts | 267° |
| 2026-04-17 13:40 | 47.26208 | 11.34658 | 1893 ft | 4 kts | 271° |
| 2026-04-17 13:40 | 47.26222 | 11.34637 | 1889 ft | 1 kts | 308° |
| 2026-04-17 13:40 | 47.26214 | 11.34622 | 1888 ft | 1 kts | 182° |